Eagle Harbor, New York
Current Conditions -  °F | °C
As of 6:54 AM on Sunday 21 Dec 2014 (Local Time) from KROC Reporting Station
Broken Clouds Broken Clouds  
Wind Chill: 27°   Ceiling: 8000
Heat Index: 27°   Visibility: 10mi
Dew Point: 22°   Wind: 3mph
Humidity: 81%   Direction: 230°SW
Pressure: 30.29"   Gusts: NA
Location:  43.2353°N, 78.214°W
Report Text: KROC 211154Z 23003KT 10SM BKN080 BKN100 M03/M06 A3029 RMK AO2 SLP269 T10281056 11011 21028 53005
Loading
Personal Weather Stations






























Interactive Weather Map New forecast layout! Learn more

10-Day Weather Forecast

Advertisements
Track Severe Weather on mobile